Startpagina
METAR-TAF:

METAR-TAF

Vliegvelden :

Luchthaven Brive-Vallée de la Dordogne

Brive-la-Gaillarde, Frankrijk

breedte: 45-02-28N, lengte: 001-28-59E, hoogte: 311 m

Actueel weer

Dit bericht is 19 minuten geleden gemaakt, om 19:30 UTC
Wind 6 kt uit het westen, variërend tussen het zuidwesten en het noordwesten
Temperatuur 19°C
Vochtigheid 78%
Druk 1003 hPa
Zicht 10 km of meer

METAR: LFSL 031930Z AUTO 27006KT 230V310 9999 FEW046/// 19/15 Q1003

Tijdstip: 21:49 (19:49 UTC)


TAF: ontbreekt

Waarnemingen en weersverwachtingen van meer dan 4000 vliegvelden (METAR en TAF).

De beschikbare stations zijn de gele en rode punten op de kaart.

Ga met uw muis naar het station om de naam te zien.

Klik dan om waarnemingen en weersverwachtingen te zien.

kaart wijzigen: klik op de groene knoppen met een zwart kruis om in te zoomen, op de groene knop met een streepje om uit te zoomen of op de groene pijlen voor aangrenzende kaarten.


METAR-TAF: